Terminal Aerodrome Forecast
Issued by NWS Cleveland, OH

Home | Current Version | Previous Version | Text Only | Print | Product List | Glossary Off
Versions: 1 2 3 4 5 6 7 8 9 10 11 12 13 14 15 16 17 18 19 20 21 22 23

000
FTUS41 KCLE 241900 AAA
TAFCLE
TAF AMD
KCLE 241904Z 2419/2524 20011G16KT P6SM SCT120 BKN250
     FM242200 16006KT P6SM SCT060 BKN120
     FM250200 14006KT P6SM SCT120 BKN250
     FM250900 20012KT P6SM SCT120 BKN250
     FM251400 22014G20KT P6SM SCT050 BKN120
     FM251600 22018G26KT P6SM BKN050=

USA.gov is the U.S. government's official web portal to all federal, state and local government web resources and services.